»·PEaware :: N416JK KLAS-KPSP

N416JK :: KLAS-KPSP

FLIGHT INFORMATION

Flight Status: Arrived
Operator: Privately registered:
United States
More flights under this callsign
Pilot: John K. (4202)
Aircraft: PIPER PA-46-310/350P MALIBU MIRAGE
(PA46)
More flights by this aircraft type
Origin: KLAS McCarran Intl
United States
Destination: KPSP Palm Springs Intl
United States
More flights between these airports :: More routes between these airports
Route: +MCCRN5 TNP
File this flight plan on PilotEdge
Remarks:
Altitude:
(Current/Filed)
12,000ft
Speed:
(Current/Filed)
170kts
Departed: 19-Dec-17 01:14 PM
Arrived: 19-Dec-17 02:14 PM
Distance/Time
Traveled:
151nm/0:59
Distance/Time
To Go:
Arrived

Flight Plot

Page will automatically refresh every two minutes.

Flight plan parsing failed; only flown route is shown


Map Options




Map Legend


Flown Route
Filed Route
Departure Airport
Arrival Airport
Navaid (VOR, NDB)
Fix

Horizontal Profiles

Position Reports

Time Latitude Longitude Heading Altitude Ground
Speed
19-Dec-17 13:06 36.080721 -115.171076 269 2145ft 0kts
19-Dec-17 13:07 36.080721 -115.171076 269 2145ft 0kts
19-Dec-17 13:08 36.080721 -115.171076 269 2145ft 0kts
19-Dec-17 13:09 36.080721 -115.171076 269 2145ft 0kts
19-Dec-17 13:10 36.080721 -115.171076 269 2145ft 0kts
19-Dec-17 13:11 36.080721 -115.171076 269 2145ft 0kts
19-Dec-17 13:12 36.081457 -115.170154 88 2145ft 0kts
19-Dec-17 13:13 36.081496 -115.169649 92 2145ft 14kts
19-Dec-17 13:14 36.084661 -115.166500 27 2145ft 18kts
19-Dec-17 13:15 36.089953 -115.163512 25 2145ft 23kts
19-Dec-17 13:16 36.096120 -115.159960 22 2145ft 25kts
19-Dec-17 13:17 36.099750 -115.157795 47 2145ft 0kts
19-Dec-17 13:18 36.099750 -115.157795 47 2145ft 0kts
19-Dec-17 13:19 36.099874 -115.157569 81 2145ft 0kts
19-Dec-17 13:20 36.092397 -115.160538 203 2149ft 102kts
19-Dec-17 13:21 36.058867 -115.178152 202 2819ft 155kts
19-Dec-17 13:22 36.021011 -115.206357 231 3636ft 170kts
19-Dec-17 13:23 35.991253 -115.252292 231 4431ft 176kts
19-Dec-17 13:24 35.960630 -115.299537 232 5226ft 179kts
19-Dec-17 13:25 35.918589 -115.322286 184 6017ft 181kts
19-Dec-17 13:26 35.869013 -115.318754 172 6808ft 183kts
19-Dec-17 13:27 35.819052 -115.309868 172 7597ft 183kts
19-Dec-17 13:28 35.769387 -115.300309 172 8394ft 179kts
19-Dec-17 13:29 35.721749 -115.291065 172 9192ft 177kts
19-Dec-17 13:30 35.674837 -115.281951 172 10169ft 171kts
19-Dec-17 13:31 35.629109 -115.273083 173 11153ft 168kts
19-Dec-17 13:32 35.584053 -115.277441 199 12045ft 171kts
19-Dec-17 13:33 35.543608 -115.291544 198 12070ft 200kts
19-Dec-17 13:34 35.480325 -115.313124 197 12065ft 212kts
19-Dec-17 13:35 35.425133 -115.331874 198 12063ft 210kts
19-Dec-17 13:36 35.378376 -115.347748 198 12063ft 209kts
19-Dec-17 13:37 35.316323 -115.368792 198 12062ft 209kts
19-Dec-17 13:38 35.271392 -115.382625 177 12044ft 212kts
19-Dec-17 13:39 35.218024 -115.350495 153 12058ft 215kts
19-Dec-17 13:40 35.157739 -115.311079 153 12056ft 215kts
19-Dec-17 13:41 35.115763 -115.283627 153 12058ft 215kts
19-Dec-17 13:42 35.063017 -115.249175 155 12061ft 215kts
19-Dec-17 13:43 34.997157 -115.256633 191 12064ft 210kts
19-Dec-17 13:44 34.950013 -115.266181 191 12064ft 211kts
19-Dec-17 13:45 34.893110 -115.278076 191 12064ft 212kts
19-Dec-17 13:46 34.835865 -115.294960 203 12065ft 211kts
19-Dec-17 13:47 34.782248 -115.321056 203 12064ft 211kts
19-Dec-17 13:48 34.728641 -115.347179 203 12064ft 211kts
19-Dec-17 13:49 34.674986 -115.373303 203 12072ft 211kts
19-Dec-17 13:50 34.621745 -115.402359 214 12087ft 209kts
19-Dec-17 13:51 34.573679 -115.438051 213 12103ft 210kts
19-Dec-17 13:52 34.524437 -115.473862 212 12110ft 210kts
19-Dec-17 13:53 34.475026 -115.509653 212 12110ft 211kts
19-Dec-17 13:54 34.425142 -115.545716 212 12109ft 211kts
19-Dec-17 13:55 34.375758 -115.581367 212 12109ft 210kts
19-Dec-17 13:56 34.327135 -115.616417 212 12108ft 204kts
19-Dec-17 13:57 34.279204 -115.650864 213 12088ft 203kts
19-Dec-17 13:58 34.231368 -115.685318 213 12081ft 199kts
19-Dec-17 13:59 34.184527 -115.718979 213 12081ft 198kts
19-Dec-17 14:00 34.138021 -115.752333 213 12081ft 197kts
19-Dec-17 14:01 34.102079 -115.799363 246 11482ft 207kts
19-Dec-17 14:02 34.077955 -115.862248 247 10449ft 216kts
19-Dec-17 14:03 34.055482 -115.920896 247 10069ft 184kts
19-Dec-17 14:04 34.034612 -115.975594 247 10059ft 181kts
19-Dec-17 14:05 34.013294 -116.030670 248 10048ft 181kts
19-Dec-17 14:06 33.980375 -116.078033 224 9295ft 205kts
19-Dec-17 14:07 33.938416 -116.123395 223 7919ft 202kts
19-Dec-17 14:08 33.902452 -116.165367 223 6991ft 154kts
19-Dec-17 14:09 33.875173 -116.197092 223 7005ft 139kts
19-Dec-17 14:10 33.845655 -116.229357 223 7007ft 150kts
19-Dec-17 14:11 33.812035 -116.266389 224 6272ft 169kts
19-Dec-17 14:12 33.793709 -116.304391 250 5376ft 105kts
19-Dec-17 14:13 33.789704 -116.336033 271 4328ft 94kts
19-Dec-17 14:14 33.790094 -116.366671 272 3362ft 95kts
19-Dec-17 14:15 33.790582 -116.398864 275 2591ft 100kts
19-Dec-17 14:16 33.794540 -116.431938 279 1785ft 101kts
19-Dec-17 14:17 33.796226 -116.462776 278 1053ft 89kts
19-Dec-17 14:18 33.806996 -116.485936 314 730ft 87kts
19-Dec-17 14:19 33.823503 -116.502234 323 493ft 69kts
19-Dec-17 14:20 33.827907 -116.507208 185 481ft 0kts
19-Dec-17 14:21 33.826482 -116.506894 160 481ft 17kts
19-Dec-17 14:22 33.825724 -116.509912 71 481ft 0kts

Navigation Log

Ident Type
Flight plan parsing failed, navigation log unavailable